Time;durP1;ratioP1;P1;durP2;ratioP2;P2;SDS_P1;SDS_P2;PMS_P1;PMS_P2;Temp;Humidity;BMP_temperature;BMP_pressure;BME280_temperature;BME280_humidity;BME280_pressure;Samples;Min_cycle;Max_cycle;Signal;HPM_P1;HPM_P2
2021/03/30 00:01:53;;;;;;;22.33;11.83;;;3.80;99.90;;;;;;4156894;28;20325;-63
2021/03/30 00:03:54;;;;;;;23.20;10.97;;;3.80;99.90;;;;;;4158522;28;20665;-63
2021/03/30 00:05:55;;;;;;;18.43;10.93;;;3.80;99.90;;;;;;4156985;28;20279;-61
2021/03/30 00:07:56;;;;;;;17.30;10.23;;;3.80;99.90;;;;;;4148548;28;20759;-63
2021/03/30 00:09:58;;;;;;;26.57;11.23;;;3.90;99.90;;;;;;4138989;28;20295;-62
2021/03/30 00:12:00;;;;;;;20.27;10.50;;;3.90;99.90;;;;;;4141246;28;20287;-61
2021/03/30 00:14:01;;;;;;;19.37;10.60;;;3.90;99.90;;;;;;4141065;28;20251;-62
2021/03/30 00:16:03;;;;;;;18.50;9.90;;;3.90;99.90;;;;;;4145294;28;20321;-62
2021/03/30 00:18:04;;;;;;;21.00;10.57;;;4.00;99.90;;;;;;4157684;28;20270;-70
2021/03/30 00:20:11;;;;;;;20.77;10.20;;;4.00;99.90;;;;;;4157139;28;21379;-72
2021/03/30 00:22:12;;;;;;;18.17;9.33;;;4.00;99.90;;;;;;4157701;28;20325;-66
2021/03/30 00:24:13;;;;;;;18.87;10.00;;;4.00;99.90;;;;;;4154555;28;20901;-67
2021/03/30 00:26:14;;;;;;;21.03;9.93;;;4.00;99.90;;;;;;4157446;28;20263;-71
2021/03/30 00:28:15;;;;;;;22.77;11.60;;;4.00;99.90;;;;;;4156373;28;20334;-71
2021/03/30 00:30:17;;;;;;;23.37;11.83;;;3.90;99.90;;;;;;4157420;28;20329;-70
2021/03/30 00:32:18;;;;;;;24.43;11.47;;;4.00;99.90;;;;;;4156110;28;20340;-65
2021/03/30 00:34:20;;;;;;;23.93;11.03;;;4.00;99.90;;;;;;4142067;28;20279;-63
2021/03/30 00:36:21;;;;;;;23.03;11.07;;;4.00;99.90;;;;;;4139698;28;20271;-62
2021/03/30 00:38:22;;;;;;;21.43;10.70;;;3.90;99.90;;;;;;4141970;28;20325;-61
2021/03/30 00:40:23;;;;;;;19.90;10.93;;;3.90;99.90;;;;;;4140399;28;20275;-61
2021/03/30 00:42:25;;;;;;;23.50;10.90;;;3.90;99.90;;;;;;4140159;28;20314;-62
2021/03/30 00:44:26;;;;;;;20.87;10.70;;;3.90;99.90;;;;;;4140284;28;20663;-65
2021/03/30 00:46:27;;;;;;;24.37;11.27;;;3.90;99.90;;;;;;4152506;28;20956;-62
2021/03/30 00:48:28;;;;;;;22.87;11.43;;;3.90;99.90;;;;;;4157100;28;20286;-61
2021/03/30 00:50:32;;;;;;;20.50;10.93;;;3.90;99.90;;;;;;4156501;28;20681;-62
2021/03/30 00:52:33;;;;;;;20.70;10.63;;;3.90;99.90;;;;;;4157404;28;20372;-61
2021/03/30 00:54:35;;;;;;;17.87;10.20;;;3.90;99.90;;;;;;4155994;28;20402;-62
2021/03/30 00:56:37;;;;;;;19.20;11.47;;;3.90;99.90;;;;;;4157399;28;20317;-64
2021/03/30 00:58:39;;;;;;;22.40;11.33;;;3.90;99.90;;;;;;4156588;28;20266;-62
2021/03/30 01:00:40;;;;;;;17.53;10.40;;;3.90;99.90;;;;;;4153412;28;20679;-62
2021/03/30 01:02:41;;;;;;;18.77;10.07;;;3.90;99.90;;;;;;4139794;28;20353;-62
2021/03/30 01:04:42;;;;;;;20.00;9.70;;;3.90;99.90;;;;;;4141927;28;20360;-62
2021/03/30 01:06:44;;;;;;;17.33;9.60;;;3.90;99.90;;;;;;4142393;28;21204;-66
2021/03/30 01:09:02;;;;;;;22.23;10.33;;;4.00;99.90;;;;;;4157622;28;20360;-60
2021/03/30 01:11:33;;;;;;;20.37;10.43;;;4.00;99.90;;;;;;4156328;28;20379;-60
2021/03/30 01:13:37;;;;;;;18.92;9.15;;;4.00;99.90;;;;;;4157198;28;20263;-60
2021/03/30 01:16:02;;;;;;;22.20;11.20;;;4.00;99.90;;;;;;4156513;28;20465;-61
2021/03/30 01:18:19;;;;;;;20.57;10.63;;;4.00;99.90;;;;;;4157721;28;20911;-60
2021/03/30 01:20:31;;;;;;;22.40;10.70;;;4.00;99.90;;;;;;4155883;28;20809;-60
2021/03/30 01:23:04;;;;;;;19.53;10.37;;;4.00;99.90;;;;;;4157394;28;20694;-61
2021/03/30 01:25:06;;;;;;;19.37;9.93;;;3.90;99.90;;;;;;4156319;28;20263;-63
2021/03/30 01:27:37;;;;;;;18.07;10.00;;;4.00;99.90;;;;;;4157445;28;20271;-60
2021/03/30 01:29:53;;;;;;;23.67;11.67;;;4.00;99.90;;;;;;4156454;28;20767;-62
2021/03/30 01:31:59;;;;;;;22.33;11.13;;;3.90;99.90;;;;;;4156877;28;20255;-61
2021/03/30 01:34:01;;;;;;;21.17;10.93;;;3.90;99.90;;;;;;4156915;28;20658;-70
2021/03/30 01:36:05;;;;;;;23.07;11.20;;;3.90;99.90;;;;;;4156877;28;20284;-66
2021/03/30 01:38:07;;;;;;;20.17;11.47;;;3.90;99.90;;;;;;4156394;28;20275;-67
2021/03/30 01:40:10;;;;;;;20.97;11.10;;;3.90;99.90;;;;;;4156960;28;20267;-70
2021/03/30 01:42:12;;;;;;;20.27;9.57;;;3.90;99.90;;;;;;4156342;28;20322;-66
2021/03/30 01:44:14;;;;;;;21.93;10.63;;;3.90;99.90;;;;;;4159074;28;20309;-67
2021/03/30 01:46:16;;;;;;;20.70;11.20;;;3.90;99.90;;;;;;4158968;28;20267;-70
2021/03/30 01:48:19;;;;;;;18.77;10.60;;;3.90;99.90;;;;;;4160313;28;20298;-65
2021/03/30 01:50:21;;;;;;;17.87;9.87;;;3.90;99.90;;;;;;4143025;28;20283;-71
2021/03/30 01:52:22;;;;;;;22.90;10.10;;;3.90;99.90;;;;;;4143525;28;20679;-69
2021/03/30 01:54:25;;;;;;;17.27;9.77;;;3.90;99.90;;;;;;4142646;28;20260;-70
2021/03/30 01:56:27;;;;;;;17.97;8.87;;;3.90;99.90;;;;;;4143902;28;20264;-70
2021/03/30 01:58:31;;;;;;;18.23;10.03;;;3.90;99.90;;;;;;4142322;28;20256;-67
2021/03/30 02:00:35;;;;;;;16.90;9.23;;;4.00;99.90;;;;;;4146786;28;20325;-69
2021/03/30 02:02:37;;;;;;;19.27;9.53;;;4.00;99.90;;;;;;4158310;28;20263;-69
2021/03/30 02:04:40;;;;;;;19.93;9.33;;;4.00;99.90;;;;;;4160412;28;20376;-72
2021/03/30 02:06:45;;;;;;;16.90;9.43;;;4.00;99.90;;;;;;4159289;28;20270;-66
2021/03/30 02:08:47;;;;;;;19.27;9.30;;;4.00;99.90;;;;;;4158133;28;20321;-69
2021/03/30 02:10:51;;;;;;;21.33;9.07;;;4.10;99.90;;;;;;4142398;28;20268;-68
2021/03/30 02:12:52;;;;;;;22.60;9.57;;;4.10;99.90;;;;;;4142924;28;20271;-71
2021/03/30 02:14:53;;;;;;;16.50;9.40;;;4.10;99.90;;;;;;4143356;28;20865;-69
2021/03/30 02:17:21;;;;;;;17.87;9.80;;;4.10;99.90;;;;;;4142557;28;20768;-60
2021/03/30 02:19:50;;;;;;;23.03;9.70;;;4.10;99.90;;;;;;4142861;28;20267;-67
2021/03/30 02:22:07;;;;;;;24.10;11.17;;;4.10;99.90;;;;;;4140709;28;20330;-70
2021/03/30 02:24:11;;;;;;;21.90;11.57;;;4.10;99.90;;;;;;4142061;28;20267;-67
2021/03/30 02:26:15;;;;;;;21.07;10.60;;;4.10;99.90;;;;;;4143154;28;20759;-65
2021/03/30 02:28:19;;;;;;;24.03;11.97;;;4.10;99.90;;;;;;4142291;28;20298;-70
2021/03/30 02:30:23;;;;;;;22.30;10.70;;;4.10;99.90;;;;;;4143081;28;20271;-72
2021/03/30 02:32:26;;;;;;;25.07;11.40;;;4.10;99.90;;;;;;4142572;28;20318;-64
2021/03/30 02:34:29;;;;;;;21.03;11.33;;;4.00;99.90;;;;;;4142510;28;20260;-62
2021/03/30 02:36:31;;;;;;;19.97;10.50;;;4.00;99.90;;;;;;4143137;28;20314;-66
2021/03/30 02:38:34;;;;;;;20.73;11.07;;;4.00;99.90;;;;;;4142750;28;20280;-62
2021/03/30 02:40:35;;;;;;;19.87;10.13;;;4.00;99.90;;;;;;4158679;28;20274;-62
2021/03/30 02:42:40;;;;;;;19.97;9.70;;;3.90;99.90;;;;;;4158361;28;20262;-64
2021/03/30 02:44:42;;;;;;;17.80;9.80;;;3.90;99.90;;;;;;4159422;28;20689;-72
2021/03/30 02:46:45;;;;;;;19.00;8.70;;;3.90;99.90;;;;;;4157991;28;20336;-65
2021/03/30 02:48:49;;;;;;;18.07;9.03;;;3.90;99.90;;;;;;4158830;28;20302;-61
2021/03/30 02:50:50;;;;;;;18.53;9.37;;;3.90;99.90;;;;;;4158107;28;20353;-63
2021/03/30 02:52:52;;;;;;;20.50;9.73;;;3.90;99.90;;;;;;4159344;28;20662;-61
2021/03/30 02:54:54;;;;;;;18.97;9.23;;;4.00;99.90;;;;;;4157372;28;20283;-61
2021/03/30 02:56:59;;;;;;;15.27;8.20;;;3.90;99.90;;;;;;4159060;28;20313;-61
2021/03/30 02:59:00;;;;;;;15.60;8.77;;;3.90;99.90;;;;;;4157151;28;20755;-61
2021/03/30 03:01:02;;;;;;;20.50;10.70;;;4.00;99.90;;;;;;4159239;28;20287;-61
2021/03/30 03:03:04;;;;;;;19.03;10.20;;;4.00;99.90;;;;;;4149712;28;21005;-60
2021/03/30 03:05:07;;;;;;;23.37;11.60;;;3.90;99.90;;;;;;4142714;28;20663;-67
2021/03/30 03:07:08;;;;;;;31.50;15.20;;;3.90;99.90;;;;;;4141822;28;20723;-68
2021/03/30 03:09:11;;;;;;;28.53;14.03;;;3.80;99.90;;;;;;4141595;28;20326;-69
2021/03/30 03:11:15;;;;;;;36.07;13.97;;;3.80;99.90;;;;;;4141473;28;20275;-63
2021/03/30 03:13:17;;;;;;;38.93;13.87;;;3.80;99.90;;;;;;4141491;28;20267;-65
2021/03/30 03:15:19;;;;;;;29.57;14.50;;;3.80;99.90;;;;;;4142335;28;20341;-66
2021/03/30 03:17:22;;;;;;;28.57;13.10;;;3.80;99.90;;;;;;4141013;28;20747;-65
2021/03/30 03:19:24;;;;;;;24.43;12.57;;;3.70;99.90;;;;;;4142539;28;20271;-61
2021/03/30 03:21:25;;;;;;;27.53;14.00;;;3.70;99.90;;;;;;4141294;28;21220;-62
2021/03/30 03:23:27;;;;;;;25.37;12.13;;;3.70;99.90;;;;;;4142567;28;20932;-61
2021/03/30 03:25:28;;;;;;;28.80;13.33;;;3.60;99.90;;;;;;4140859;28;20267;-61
2021/03/30 03:27:29;;;;;;;25.43;13.10;;;3.60;99.90;;;;;;4142842;28;20267;-63
2021/03/30 03:29:32;;;;;;;27.97;14.37;;;3.60;99.90;;;;;;4150259;28;20295;-64
2021/03/30 03:31:33;;;;;;;35.60;14.07;;;3.60;99.90;;;;;;4158720;28;20282;-60
2021/03/30 03:33:34;;;;;;;31.27;16.03;;;3.60;99.90;;;;;;4157522;28;20282;-61
2021/03/30 03:35:35;;;;;;;27.63;14.27;;;3.60;99.90;;;;;;4159235;28;20274;-71
2021/03/30 03:37:43;;;;;;;29.73;14.10;;;3.60;99.90;;;;;;4157432;28;20269;-66
2021/03/30 03:39:44;;;;;;;29.23;14.43;;;3.50;99.90;;;;;;4158137;28;20805;-69
2021/03/30 03:41:46;;;;;;;32.80;14.23;;;3.40;99.90;;;;;;4157567;28;20749;-63
2021/03/30 03:43:49;;;;;;;35.20;16.83;;;3.40;99.90;;;;;;4156684;28;20324;-68
2021/03/30 03:45:50;;;;;;;32.57;14.67;;;3.30;99.90;;;;;;4156585;28;20825;-69
2021/03/30 03:47:51;;;;;;;29.37;13.93;;;3.30;99.90;;;;;;4157670;28;20267;-65
2021/03/30 03:49:52;;;;;;;28.97;14.10;;;3.30;99.90;;;;;;4158095;28;20349;-69
2021/03/30 03:52:03;;;;;;;34.60;14.37;;;3.40;99.90;;;;;;4155945;28;20357;-66
2021/03/30 03:54:07;;;;;;;34.87;14.37;;;3.40;99.90;;;;;;4158290;28;20851;-66
2021/03/30 03:56:09;;;;;;;34.07;15.30;;;3.40;99.90;;;;;;4157077;28;20812;-68
2021/03/30 03:58:13;;;;;;;32.33;14.63;;;3.40;99.90;;;;;;4158112;28;20937;-68
2021/03/30 04:00:15;;;;;;;31.53;15.10;;;3.40;99.90;;;;;;4155746;28;20275;-67
2021/03/30 04:02:24;;;;;;;36.83;15.13;;;3.50;99.90;;;;;;4158118;28;20271;-67
2021/03/30 04:04:31;;;;;;;34.63;14.87;;;3.50;99.90;;;;;;4156301;28;20274;-71
2021/03/30 04:06:39;;;;;;;31.53;14.40;;;3.50;99.90;;;;;;4157207;28;20325;-64
2021/03/30 04:08:51;;;;;;;39.77;15.60;;;3.50;99.90;;;;;;4156574;28;20326;-67
2021/03/30 04:10:53;;;;;;;36.17;16.57;;;3.50;99.90;;;;;;4157317;28;20275;-64
2021/03/30 04:12:56;;;;;;;33.03;15.00;;;3.60;99.90;;;;;;4155459;28;20270;-67
2021/03/30 04:14:58;;;;;;;37.17;15.77;;;3.60;99.90;;;;;;4157950;28;20324;-71
2021/03/30 04:17:00;;;;;;;32.10;15.40;;;3.60;99.90;;;;;;4156263;28;20652;-64
2021/03/30 04:19:01;;;;;;;30.03;14.23;;;3.70;99.90;;;;;;4156096;28;20293;-61
2021/03/30 04:21:04;;;;;;;34.87;13.13;;;3.60;99.90;;;;;;4150135;28;20274;-62
2021/03/30 04:23:05;;;;;;;27.93;12.57;;;3.60;99.90;;;;;;4141210;28;20334;-69
2021/03/30 04:25:07;;;;;;;33.67;15.40;;;3.60;99.90;;;;;;4140112;28;20263;-61
2021/03/30 04:27:10;;;;;;;40.77;15.90;;;3.50;99.90;;;;;;4140563;28;20306;-62
2021/03/30 04:29:11;;;;;;;35.67;17.37;;;3.50;99.90;;;;;;4140649;28;20617;-61
2021/03/30 04:31:12;;;;;;;48.00;18.87;;;3.60;99.90;;;;;;4140503;28;20325;-61
2021/03/30 04:33:13;;;;;;;53.47;21.13;;;3.60;99.90;;;;;;4140925;28;20310;-66
2021/03/30 04:35:15;;;;;;;47.50;19.73;;;3.80;99.90;;;;;;4140291;28;20267;-62
2021/03/30 04:37:16;;;;;;;41.87;18.97;;;4.10;99.90;;;;;;4142236;28;20318;-61
2021/03/30 04:39:17;;;;;;;33.77;17.93;;;4.40;99.90;;;;;;4151531;28;20699;-60
2021/03/30 04:41:18;;;;;;;48.47;20.17;;;4.60;99.90;;;;;;4141383;28;20744;-60
2021/03/30 04:43:21;;;;;;;43.17;18.40;;;4.80;99.90;;;;;;4138658;28;20341;-62
2021/03/30 04:45:22;;;;;;;40.17;18.30;;;4.80;99.90;;;;;;4140823;28;20329;-62
2021/03/30 04:47:24;;;;;;;40.57;18.77;;;4.80;99.90;;;;;;4139460;28;20271;-61
2021/03/30 04:49:25;;;;;;;47.50;21.77;;;4.70;99.90;;;;;;4140484;28;20318;-61
2021/03/30 04:51:27;;;;;;;44.13;19.03;;;4.80;99.90;;;;;;4139373;28;20605;-70
2021/03/30 04:53:29;;;;;;;47.27;18.00;;;4.70;99.90;;;;;;4140781;28;20318;-70
2021/03/30 04:55:31;;;;;;;36.90;18.13;;;4.60;99.90;;;;;;4140089;28;20275;-71
2021/03/30 04:57:32;;;;;;;38.27;17.90;;;4.50;99.90;;;;;;4151042;28;20345;-69
2021/03/30 04:59:33;;;;;;;41.60;17.67;;;4.40;99.90;;;;;;4155355;28;20297;-73
2021/03/30 05:01:35;;;;;;;34.57;17.67;;;4.30;99.90;;;;;;4155917;28;20678;-71
2021/03/30 05:03:36;;;;;;;49.23;20.33;;;4.30;99.90;;;;;;4156579;28;20333;-67
2021/03/30 05:05:37;;;;;;;56.97;22.60;;;4.10;99.90;;;;;;4156463;28;20275;-62
2021/03/30 05:07:38;;;;;;;48.50;22.10;;;4.00;99.90;;;;;;4156357;28;20266;-61
2021/03/30 05:09:40;;;;;;;45.77;22.27;;;3.90;99.90;;;;;;4142068;28;20707;-61
2021/03/30 05:11:41;;;;;;;43.50;22.17;;;3.90;99.90;;;;;;4141041;28;20275;-66
2021/03/30 05:13:42;;;;;;;62.23;25.57;;;3.80;99.90;;;;;;4137733;28;20283;-61
2021/03/30 05:15:43;;;;;;;230.97;88.30;;;3.70;99.90;;;;;;4140971;28;20287;-63
2021/03/30 05:17:44;;;;;;;216.47;87.60;;;3.60;99.90;;;;;;4139784;28;20279;-62
2021/03/30 05:19:45;;;;;;;97.80;37.80;;;3.50;99.90;;;;;;4143325;28;20318;-61
2021/03/30 05:21:46;;;;;;;65.73;28.50;;;3.40;99.90;;;;;;4142359;28;20337;-64
2021/03/30 05:23:48;;;;;;;87.13;40.27;;;3.30;99.90;;;;;;4144048;28;20275;-68
2021/03/30 05:25:49;;;;;;;71.73;32.10;;;3.20;99.90;;;;;;4142399;28;20275;-69
2021/03/30 05:27:51;;;;;;;66.67;29.23;;;3.10;99.90;;;;;;4143292;28;20291;-67
2021/03/30 05:29:52;;;;;;;64.27;28.27;;;3.10;99.90;;;;;;4142878;28;20299;-66
2021/03/30 05:31:53;;;;;;;61.07;27.87;;;3.00;99.90;;;;;;4146773;28;20656;-63
2021/03/30 05:33:55;;;;;;;51.30;24.63;;;3.00;99.90;;;;;;4157052;28;20247;-61
2021/03/30 05:35:56;;;;;;;51.57;23.73;;;3.00;99.90;;;;;;4152430;28;20259;-58
2021/03/30 05:37:57;;;;;;;75.90;33.27;;;3.00;99.90;;;;;;4156101;28;20287;-57
2021/03/30 05:39:58;;;;;;;40.17;20.30;;;3.10;99.90;;;;;;4157002;28;20271;-60
2021/03/30 05:42:01;;;;;;;48.67;21.27;;;3.10;99.90;;;;;;4160842;28;20710;-60
2021/03/30 05:44:02;;;;;;;35.50;18.50;;;3.30;99.90;;;;;;4159809;28;20329;-62
2021/03/30 05:46:04;;;;;;;38.17;17.93;;;3.30;99.90;;;;;;4158817;28;20344;-61
2021/03/30 05:48:10;;;;;;;37.50;18.20;;;3.40;99.90;;;;;;4153987;28;20318;-61
2021/03/30 05:50:18;;;;;;;47.43;18.80;;;3.50;99.90;;;;;;4143686;28;20321;-59
2021/03/30 05:52:51;;;;;;;40.07;17.73;;;3.70;99.90;;;;;;4142221;28;20279;-61
2021/03/30 05:54:53;;;;;;;39.20;16.58;;;4.00;99.90;;;;;;4157277;28;20277;-62
2021/03/30 05:56:55;;;;;;;36.20;16.63;;;4.20;99.90;;;;;;4149239;28;20046;-61
2021/03/30 05:58:59;;;;;;;28.23;16.30;;;4.30;99.90;;;;;;4149606;28;20622;-62
2021/03/30 06:01:04;;;;;;;35.77;17.57;;;4.50;99.90;;;;;;4155737;28;20279;-59
2021/03/30 06:03:21;;;;;;;30.13;16.03;;;4.60;99.90;;;;;;4156147;28;20320;-59
2021/03/30 06:05:23;;;;;;;38.67;15.57;;;4.70;99.90;;;;;;4154830;28;20262;-61
2021/03/30 06:07:27;;;;;;;30.07;17.00;;;4.80;99.90;;;;;;4157574;28;20282;-59
2021/03/30 06:09:29;;;;;;;39.20;20.37;;;4.90;99.90;;;;;;4153018;28;20345;-61
2021/03/30 06:11:31;;;;;;;30.10;15.40;;;5.00;99.90;;;;;;4156268;28;20697;-61
2021/03/30 06:13:54;;;;;;;32.13;15.10;;;5.20;99.90;;;;;;4158403;28;20270;-61
2021/03/30 06:16:32;;;;;;;35.00;15.00;;;5.40;99.90;;;;;;4144115;28;20378;-60
2021/03/30 06:18:33;;;;;;;29.23;15.33;;;5.50;99.90;;;;;;4142787;28;20345;-61
2021/03/30 06:20:36;;;;;;;31.73;15.87;;;5.60;99.90;;;;;;4146847;28;20295;-60
2021/03/30 06:22:55;;;;;;;44.57;17.30;;;5.70;99.90;;;;;;4141220;28;20275;-60
2021/03/30 06:24:56;;;;;;;40.93;17.63;;;5.70;99.90;;;;;;4143327;28;20353;-61
2021/03/30 06:27:03;;;;;;;47.87;21.27;;;5.80;99.90;;;;;;4149106;28;20275;-57
2021/03/30 06:29:35;;;;;;;43.43;19.07;;;5.90;99.90;;;;;;4159062;28;20372;-61
2021/03/30 06:31:37;;;;;;;44.73;19.13;;;5.90;99.90;;;;;;4157900;28;20294;-62
2021/03/30 06:33:50;;;;;;;35.70;16.77;;;6.10;99.90;;;;;;4157319;28;20305;-62
2021/03/30 06:35:52;;;;;;;30.60;16.47;;;6.30;99.90;;;;;;4155366;28;20274;-61
2021/03/30 06:37:53;;;;;;;35.73;15.93;;;6.40;99.90;;;;;;4157907;28;20275;-60
2021/03/30 06:40:20;;;;;;;31.27;15.07;;;6.50;99.90;;;;;;4158124;28;20309;-62
2021/03/30 06:44:39;;;;;;;32.93;15.60;;;6.90;99.90;;;;;;4143158;28;20287;-59
2021/03/30 06:46:40;;;;;;;27.23;14.80;;;7.00;99.90;;;;;;4151894;28;20282;-57
2021/03/30 06:48:43;;;;;;;32.27;15.53;;;7.30;99.90;;;;;;4157822;28;20320;-58
2021/03/30 06:50:44;;;;;;;30.37;15.20;;;7.60;99.90;;;;;;4157116;28;20790;-60
2021/03/30 06:52:45;;;;;;;36.17;14.93;;;7.80;99.00;;;;;;4156082;28;20274;-60
2021/03/30 06:55:07;;;;;;;26.00;13.33;;;8.00;98.40;;;;;;4158381;28;20751;-59
2021/03/30 06:57:08;;;;;;;26.33;14.60;;;8.30;97.00;;;;;;4145279;28;20925;-61
2021/03/30 06:59:09;;;;;;;22.47;13.00;;;8.60;96.10;;;;;;4141079;28;20037;-58
2021/03/30 07:01:11;;;;;;;23.20;13.40;;;8.80;95.00;;;;;;4140578;28;20033;-58
2021/03/30 07:03:18;;;;;;;22.67;11.17;;;9.20;94.60;;;;;;4142234;28;20083;-59
2021/03/30 07:05:37;;;;;;;13.67;8.70;;;9.60;92.30;;;;;;4152956;28;20037;-59
2021/03/30 07:07:38;;;;;;;20.33;9.50;;;9.80;90.30;;;;;;4141676;28;20551;-58
2021/03/30 07:09:40;;;;;;;20.13;11.00;;;9.80;89.50;;;;;;4140552;28;20384;-59
2021/03/30 07:11:41;;;;;;;20.90;11.27;;;9.80;88.90;;;;;;4142122;28;20866;-59
2021/03/30 07:13:42;;;;;;;23.83;12.60;;;10.10;88.20;;;;;;4141053;28;20030;-57
2021/03/30 07:15:44;;;;;;;21.13;12.27;;;10.40;86.20;;;;;;4142719;28;20037;-64
2021/03/30 07:18:00;;;;;;;27.40;12.27;;;10.20;84.10;;;;;;4158227;28;20038;-62
2021/03/30 07:20:04;;;;;;;21.07;12.63;;;10.20;84.10;;;;;;4149836;28;20030;-60
2021/03/30 07:22:10;;;;;;;22.97;10.00;;;10.40;84.00;;;;;;4150493;28;20446;-62
2021/03/30 07:24:12;;;;;;;14.90;9.60;;;10.70;83.50;;;;;;4157657;28;20119;-60
2021/03/30 07:26:18;;;;;;;18.70;10.63;;;11.40;81.50;;;;;;4158326;28;20034;-60
2021/03/30 07:28:23;;;;;;;24.00;10.57;;;12.10;79.20;;;;;;4147336;28;20030;-63
2021/03/30 07:30:25;;;;;;;20.97;9.90;;;12.80;76.80;;;;;;4145913;28;20095;-61
2021/03/30 07:32:58;;;;;;;18.70;9.30;;;13.30;74.10;;;;;;4142934;28;20035;-60
2021/03/30 07:35:03;;;;;;;15.63;7.80;;;13.50;67.30;;;;;;4149348;28;20038;-57
2021/03/30 07:37:09;;;;;;;15.57;8.67;;;13.10;70.20;;;;;;4144309;28;20084;-61
2021/03/30 07:39:10;;;;;;;19.40;8.87;;;13.10;70.10;;;;;;4152700;28;20030;-59
2021/03/30 07:41:18;;;;;;;15.37;8.70;;;13.00;69.00;;;;;;4148335;28;20084;-60
2021/03/30 07:43:26;;;;;;;15.23;7.50;;;12.80;68.70;;;;;;4144270;28;20478;-60
2021/03/30 07:45:31;;;;;;;20.73;7.77;;;12.70;67.10;;;;;;4140926;28;20026;-61
2021/03/30 07:47:34;;;;;;;17.93;7.87;;;12.50;67.80;;;;;;4142743;28;20486;-61
2021/03/30 07:49:52;;;;;;;14.13;7.33;;;12.30;68.60;;;;;;4140579;28;20442;-61
2021/03/30 07:51:53;;;;;;;21.30;8.77;;;12.50;66.50;;;;;;4141692;28;20115;-61
2021/03/30 07:54:05;;;;;;;22.77;8.10;;;12.60;68.00;;;;;;4140391;28;20076;-61
2021/03/30 07:56:09;;;;;;;17.43;8.37;;;12.90;66.90;;;;;;4142037;28;20049;-60
2021/03/30 07:58:11;;;;;;;16.73;8.13;;;13.00;66.50;;;;;;4141112;28;20034;-60
2021/03/30 08:00:32;;;;;;;14.23;8.10;;;12.80;65.80;;;;;;4142066;28;20053;-61
2021/03/30 08:02:33;;;;;;;21.33;8.93;;;12.90;64.00;;;;;;4140287;28;20041;-61
2021/03/30 08:04:35;;;;;;;20.13;9.20;;;12.90;66.30;;;;;;4142337;28;20115;-60
2021/03/30 08:06:49;;;;;;;15.50;8.33;;;12.70;65.80;;;;;;4141483;28;20129;-62
2021/03/30 08:09:06;;;;;;;17.77;9.37;;;12.50;65.40;;;;;;4152466;28;20379;-60
2021/03/30 08:11:08;;;;;;;17.63;9.43;;;12.20;66.30;;;;;;4140248;28;20461;-61
2021/03/30 08:13:24;;;;;;;18.57;9.10;;;12.00;66.80;;;;;;4148513;28;20026;-61
2021/03/30 08:15:45;;;;;;;15.70;10.17;;;11.90;66.50;;;;;;4156874;28;20037;-61
2021/03/30 08:17:48;;;;;;;25.02;9.82;;;12.20;65.90;;;;;;4158146;28;20045;-60
2021/03/30 08:19:54;;;;;;;14.30;9.07;;;12.30;66.40;;;;;;4156903;28;20033;-63
2021/03/30 08:22:06;;;;;;;16.07;9.20;;;12.50;66.50;;;;;;4154708;28;20041;-61
2021/03/30 08:24:08;;;;;;;16.73;9.17;;;12.90;66.40;;;;;;4139808;28;20026;-62
2021/03/30 08:26:21;;;;;;;16.57;9.37;;;13.20;64.80;;;;;;4146421;28;20021;-61
2021/03/30 08:28:50;;;;;;;16.90;8.80;;;13.00;64.50;;;;;;4156115;28;20087;-62
2021/03/30 08:30:55;;;;;;;16.57;9.50;;;12.90;64.00;;;;;;4157436;28;20060;-61
2021/03/30 08:32:59;;;;;;;14.67;9.07;;;13.00;64.60;;;;;;4155998;28;20421;-60
2021/03/30 08:35:11;;;;;;;18.47;8.80;;;13.10;64.20;;;;;;4156164;28;20114;-61
2021/03/30 08:37:13;;;;;;;14.10;9.47;;;13.20;64.50;;;;;;4139753;28;20076;-66
2021/03/30 08:39:17;;;;;;;15.97;8.60;;;13.40;64.10;;;;;;4141223;28;20042;-61
2021/03/30 08:41:47;;;;;;;17.50;9.17;;;13.60;63.20;;;;;;4139679;28;21283;-60
2021/03/30 08:44:11;;;;;;;16.50;8.60;;;13.20;62.70;;;;;;4151490;28;20033;-60
2021/03/30 08:46:13;;;;;;;13.77;8.00;;;12.70;63.40;;;;;;4156579;28;20079;-58
2021/03/30 08:48:16;;;;;;;15.73;8.67;;;12.60;64.70;;;;;;4153059;28;20026;-64
2021/03/30 08:50:27;;;;;;;11.93;6.87;;;12.80;64.60;;;;;;4156079;28;20045;-60
2021/03/30 08:52:30;;;;;;;12.80;7.40;;;13.20;64.10;;;;;;4156870;28;20129;-60
2021/03/30 08:54:48;;;;;;;10.80;7.27;;;13.50;63.50;;;;;;4156269;28;20550;-62
2021/03/30 08:56:50;;;;;;;13.17;6.50;;;13.50;62.60;;;;;;4155336;28;20076;-60
2021/03/30 08:58:52;;;;;;;16.60;7.97;;;13.40;62.50;;;;;;4140218;28;20108;-63
2021/03/30 09:00:55;;;;;;;13.30;7.10;;;13.40;62.70;;;;;;4141671;28;20088;-63
2021/03/30 09:03:04;;;;;;;14.03;6.97;;;13.40;62.50;;;;;;4140178;28;20041;-61
2021/03/30 09:05:16;;;;;;;14.10;7.30;;;13.70;62.20;;;;;;4140456;28;20049;-64
2021/03/30 09:07:18;;;;;;;14.97;7.50;;;13.70;60.90;;;;;;4139303;28;20491;-64
2021/03/30 09:09:20;;;;;;;12.33;7.00;;;13.40;61.50;;;;;;4143455;28;20600;-61
2021/03/30 09:11:26;;;;;;;12.50;8.00;;;12.80;61.90;;;;;;4141514;28;20046;-58
2021/03/30 09:13:27;;;;;;;13.57;7.27;;;12.40;63.20;;;;;;4141819;28;20092;-62
2021/03/30 09:15:28;;;;;;;15.73;7.13;;;12.30;63.70;;;;;;4140895;28;20029;-62
2021/03/30 09:17:31;;;;;;;12.73;7.10;;;12.20;63.70;;;;;;4157001;28;20034;-60
2021/03/30 09:19:41;;;;;;;14.53;7.80;;;12.40;64.00;;;;;;4153464;28;20053;-60
2021/03/30 09:21:54;;;;;;;16.38;8.07;;;12.70;64.00;;;;;;4156901;28;20050;-61
2021/03/30 09:24:00;;;;;;;10.77;6.83;;;13.10;63.10;;;;;;4155929;28;20091;-66
2021/03/30 09:26:10;;;;;;;9.97;6.57;;;13.00;62.30;;;;;;4154527;28;20571;-60
2021/03/30 09:28:16;;;;;;;12.35;7.07;;;12.80;62.70;;;;;;4153597;28;20045;-62
2021/03/30 09:30:19;;;;;;;10.70;6.97;;;12.80;62.40;;;;;;4156526;28;20087;-59
2021/03/30 09:32:22;;;;;;;11.50;5.97;;;12.80;62.30;;;;;;4154275;28;20041;-61
2021/03/30 09:34:26;;;;;;;11.53;6.60;;;12.90;62.10;;;;;;4155463;28;20021;-64
2021/03/30 09:36:28;;;;;;;11.67;6.30;;;13.20;62.10;;;;;;4155486;28;20087;-60
2021/03/30 09:38:30;;;;;;;10.53;6.53;;;13.40;61.10;;;;;;4144411;28;20050;-62
2021/03/30 09:40:35;;;;;;;12.37;6.83;;;13.20;60.80;;;;;;4139887;28;20094;-59
2021/03/30 09:42:39;;;;;;;16.03;7.83;;;13.20;60.90;;;;;;4140733;28;20922;-61
2021/03/30 09:44:43;;;;;;;15.57;8.10;;;13.20;60.90;;;;;;4143745;28;20041;-60
2021/03/30 09:46:47;;;;;;;11.60;5.70;;;13.10;60.70;;;;;;4150093;28;20556;-61
2021/03/30 09:48:48;;;;;;;11.47;6.70;;;13.10;60.40;;;;;;4141145;28;20572;-62
2021/03/30 09:50:52;;;;;;;10.57;6.40;;;13.00;60.70;;;;;;4140058;28;20052;-61
2021/03/30 09:53:00;;;;;;;11.67;6.07;;;12.90;60.90;;;;;;4151628;28;20034;-63
2021/03/30 09:55:01;;;;;;;11.77;5.87;;;12.90;60.90;;;;;;4137774;28;20033;-60
2021/03/30 09:57:10;;;;;;;10.53;5.40;;;13.00;60.60;;;;;;4143696;28;20068;-60
2021/03/30 09:59:18;;;;;;;9.15;5.53;;;13.10;60.00;;;;;;4155207;28;20041;-65
2021/03/30 10:01:19;;;;;;;8.03;4.60;;;13.10;59.70;;;;;;4144209;28;20042;-60
2021/03/30 10:03:22;;;;;;;12.40;5.70;;;13.20;59.80;;;;;;4139676;28;20045;-59
2021/03/30 10:05:23;;;;;;;10.27;4.77;;;13.30;60.10;;;;;;4143574;28;20528;-58
2021/03/30 10:07:34;;;;;;;11.57;5.80;;;13.40;58.70;;;;;;4143372;28;20092;-63
2021/03/30 10:09:35;;;;;;;11.43;5.13;;;13.20;58.60;;;;;;4156317;28;20045;-63
2021/03/30 10:11:37;;;;;;;13.30;5.00;;;13.10;58.70;;;;;;4159107;28;20049;-63
2021/03/30 10:13:40;;;;;;;10.07;4.97;;;13.20;59.00;;;;;;4160183;28;20076;-63
2021/03/30 10:15:42;;;;;;;8.37;4.27;;;13.30;58.70;;;;;;4158738;28;20107;-64
2021/03/30 10:17:44;;;;;;;9.43;5.00;;;13.20;58.50;;;;;;4159586;28;20501;-63
2021/03/30 10:19:53;;;;;;;9.00;4.90;;;13.20;58.80;;;;;;4158154;28;20029;-64
2021/03/30 10:21:55;;;;;;;12.40;5.00;;;13.50;58.40;;;;;;4159110;28;20079;-63
2021/03/30 10:23:56;;;;;;;8.03;5.03;;;13.50;58.40;;;;;;4155906;28;20068;-63
2021/03/30 10:25:57;;;;;;;10.97;5.53;;;13.60;58.60;;;;;;4158396;28;20068;-62
2021/03/30 10:28:00;;;;;;;8.73;4.77;;;13.80;58.20;;;;;;4158211;28;20060;-63
2021/03/30 10:30:02;;;;;;;9.47;5.30;;;13.60;57.90;;;;;;4158406;28;20042;-62
2021/03/30 10:32:15;;;;;;;7.77;4.40;;;13.30;58.30;;;;;;4159421;28;20512;-63
2021/03/30 10:34:29;;;;;;;12.27;4.10;;;13.10;58.20;;;;;;4157674;28;20155;-64
2021/03/30 10:36:31;;;;;;;11.00;4.70;;;12.90;58.60;;;;;;4159296;28;20097;-62
2021/03/30 10:38:32;;;;;;;6.33;3.80;;;13.00;58.80;;;;;;4157309;28;20049;-61
2021/03/30 10:40:36;;;;;;;9.07;3.90;;;13.00;59.40;;;;;;4142972;28;20034;-62
2021/03/30 10:42:40;;;;;;;10.03;4.60;;;13.10;58.90;;;;;;4138920;28;20046;-60
2021/03/30 10:44:43;;;;;;;8.53;4.37;;;13.20;59.00;;;;;;4157677;28;20091;-62
2021/03/30 10:46:47;;;;;;;7.03;4.20;;;13.30;58.80;;;;;;4158212;28;20025;-62